sensor_id;sensor_type;location;lat;lon;timestamp;pressure;altitude;pressure_sealevel;temperature;humidity
44140;BME280;29803;51.048;4.686;2024-02-26T00:01:47;99546.06;;;8.54;100.00
44140;BME280;29803;51.048;4.686;2024-02-26T00:04:18;99550.75;;;8.52;100.00
44140;BME280;29803;51.048;4.686;2024-02-26T00:06:48;99549.84;;;8.45;100.00
44140;BME280;29803;51.048;4.686;2024-02-26T00:09:21;99555.19;;;8.45;100.00
44140;BME280;29803;51.048;4.686;2024-02-26T00:11:51;99551.84;;;8.43;100.00
44140;BME280;29803;51.048;4.686;2024-02-26T00:14:22;99553.53;;;8.44;100.00
44140;BME280;29803;51.048;4.686;2024-02-26T00:16:52;99548.84;;;8.46;100.00
44140;BME280;29803;51.048;4.686;2024-02-26T00:19:23;99546.16;;;8.46;100.00
44140;BME280;29803;51.048;4.686;2024-02-26T00:21:53;99550.69;;;8.46;100.00
44140;BME280;29803;51.048;4.686;2024-02-26T00:24:25;99554.53;;;8.43;100.00
44140;BME280;29803;51.048;4.686;2024-02-26T00:26:56;99540.72;;;8.40;100.00
44140;BME280;29803;51.048;4.686;2024-02-26T00:29:26;99536.28;;;8.47;100.00
44140;BME280;29803;51.048;4.686;2024-02-26T00:31:57;99535.19;;;8.41;100.00
44140;BME280;29803;51.048;4.686;2024-02-26T00:34:27;99539.16;;;8.45;100.00
44140;BME280;29803;51.048;4.686;2024-02-26T00:36:58;99536.09;;;8.34;100.00
44140;BME280;29803;51.048;4.686;2024-02-26T00:39:28;99538.56;;;8.35;100.00
44140;BME280;29803;51.048;4.686;2024-02-26T00:41:58;99536.09;;;8.34;100.00
44140;BME280;29803;51.048;4.686;2024-02-26T00:44:29;99528.81;;;8.42;100.00
44140;BME280;29803;51.048;4.686;2024-02-26T00:47:00;99530.66;;;8.42;100.00
44140;BME280;29803;51.048;4.686;2024-02-26T00:49:30;99534.56;;;8.39;100.00
44140;BME280;29803;51.048;4.686;2024-02-26T00:52:01;99537.22;;;8.39;100.00
44140;BME280;29803;51.048;4.686;2024-02-26T00:54:31;99537.22;;;8.39;100.00
44140;BME280;29803;51.048;4.686;2024-02-26T00:57:02;99539.25;;;8.37;100.00
44140;BME280;29803;51.048;4.686;2024-02-26T00:59:32;99546.78;;;8.34;100.00
44140;BME280;29803;51.048;4.686;2024-02-26T01:02:03;99542.25;;;8.34;100.00
44140;BME280;29803;51.048;4.686;2024-02-26T01:04:35;99544.28;;;8.32;100.00
44140;BME280;29803;51.048;4.686;2024-02-26T01:07:06;99540.97;;;8.30;100.00
44140;BME280;29803;51.048;4.686;2024-02-26T01:09:36;99540.22;;;8.21;100.00
44140;BME280;29803;51.048;4.686;2024-02-26T01:12:07;99542.78;;;8.15;100.00
44140;BME280;29803;51.048;4.686;2024-02-26T01:14:37;99533.47;;;8.11;100.00
44140;BME280;29803;51.048;4.686;2024-02-26T01:17:08;99541.84;;;8.08;100.00
44140;BME280;29803;51.048;4.686;2024-02-26T01:19:38;99554.56;;;8.05;100.00
44140;BME280;29803;51.048;4.686;2024-02-26T01:22:09;99548.69;;;8.10;100.00
44140;BME280;29803;51.048;4.686;2024-02-26T01:24:39;99558.88;;;8.07;100.00
44140;BME280;29803;51.048;4.686;2024-02-26T01:27:10;99557.03;;;8.07;100.00
44140;BME280;29803;51.048;4.686;2024-02-26T01:29:41;99555.94;;;8.01;100.00
44140;BME280;29803;51.048;4.686;2024-02-26T01:32:11;99556.72;;;7.87;100.00
44140;BME280;29803;51.048;4.686;2024-02-26T01:34:42;99555.91;;;7.87;100.00
44140;BME280;29803;51.048;4.686;2024-02-26T01:37:12;99559.78;;;7.84;100.00
44140;BME280;29803;51.048;4.686;2024-02-26T01:39:43;99553.94;;;7.81;100.00
44140;BME280;29803;51.048;4.686;2024-02-26T01:42:13;99549.50;;;7.73;100.00
44140;BME280;29803;51.048;4.686;2024-02-26T01:44:44;99540.13;;;7.77;100.00
44140;BME280;29803;51.048;4.686;2024-02-26T01:47:15;99540.22;;;7.69;100.00
44140;BME280;29803;51.048;4.686;2024-02-26T01:49:45;99541.31;;;7.74;100.00
44140;BME280;29803;51.048;4.686;2024-02-26T01:52:16;99539.19;;;7.70;100.00
44140;BME280;29803;51.048;4.686;2024-02-26T01:54:48;99547.94;;;7.64;100.00
44140;BME280;29803;51.048;4.686;2024-02-26T01:57:19;99541.75;;;7.63;100.00
44140;BME280;29803;51.048;4.686;2024-02-26T01:59:49;99535.75;;;7.61;100.00
44140;BME280;29803;51.048;4.686;2024-02-26T02:02:20;99546.13;;;7.56;100.00
44140;BME280;29803;51.048;4.686;2024-02-26T02:04:51;99542.97;;;7.52;100.00
44140;BME280;29803;51.048;4.686;2024-02-26T02:07:22;99546.03;;;7.49;100.00
44140;BME280;29803;51.048;4.686;2024-02-26T02:09:53;99549.81;;;7.55;100.00
44140;BME280;29803;51.048;4.686;2024-02-26T02:12:24;99554.13;;;7.56;100.00
44140;BME280;29803;51.048;4.686;2024-02-26T02:14:55;99551.66;;;7.55;100.00
44140;BME280;29803;51.048;4.686;2024-02-26T02:17:26;99560.59;;;7.62;100.00
44140;BME280;29803;51.048;4.686;2024-02-26T02:20:14;99558.84;;;7.54;100.00
44140;BME280;29803;51.048;4.686;2024-02-26T02:22:45;99562.19;;;7.48;100.00
44140;BME280;29803;51.048;4.686;2024-02-26T02:25:35;99564.00;;;7.56;100.00
44140;BME280;29803;51.048;4.686;2024-02-26T02:28:27;99566.16;;;7.52;100.00
44140;BME280;29803;51.048;4.686;2024-02-26T02:30:58;99568.19;;;7.50;100.00
44140;BME280;29803;51.048;4.686;2024-02-26T02:33:29;99564.28;;;7.61;100.00
44140;BME280;29803;51.048;4.686;2024-02-26T02:36:00;99560.97;;;7.59;100.00
44140;BME280;29803;51.048;4.686;2024-02-26T02:38:30;99561.63;;;7.61;100.00
44140;BME280;29803;51.048;4.686;2024-02-26T02:41:02;99561.63;;;7.61;100.00
44140;BME280;29803;51.048;4.686;2024-02-26T02:43:32;99558.47;;;7.57;100.00
44140;BME280;29803;51.048;4.686;2024-02-26T02:46:03;99547.50;;;7.52;100.00
44140;BME280;29803;51.048;4.686;2024-02-26T02:48:33;99554.03;;;7.49;100.00
44140;BME280;29803;51.048;4.686;2024-02-26T02:51:04;99555.44;;;7.37;100.00
44140;BME280;29803;51.048;4.686;2024-02-26T02:53:35;99565.41;;;7.43;100.00
44140;BME280;29803;51.048;4.686;2024-02-26T02:56:05;99567.53;;;7.48;100.00
44140;BME280;29803;51.048;4.686;2024-02-26T02:58:36;99570.38;;;7.46;100.00
44140;BME280;29803;51.048;4.686;2024-02-26T03:01:07;99568.78;;;7.37;100.00
44140;BME280;29803;51.048;4.686;2024-02-26T03:03:37;99568.13;;;7.35;100.00
44140;BME280;29803;51.048;4.686;2024-02-26T03:06:08;99562.50;;;7.30;100.00
44140;BME280;29803;51.048;4.686;2024-02-26T03:08:39;99559.50;;;7.33;100.00
44140;BME280;29803;51.048;4.686;2024-02-26T03:11:13;99561.25;;;7.41;100.00
44140;BME280;29803;51.048;4.686;2024-02-26T03:13:45;99558.41;;;7.42;100.00
44140;BME280;29803;51.048;4.686;2024-02-26T03:16:17;99564.63;;;7.35;100.00
44140;BME280;29803;51.048;4.686;2024-02-26T03:18:48;99563.28;;;7.39;100.00
44140;BME280;29803;51.048;4.686;2024-02-26T03:21:18;99566.81;;;7.31;100.00
44140;BME280;29803;51.048;4.686;2024-02-26T03:23:49;99571.84;;;7.26;100.00
44140;BME280;29803;51.048;4.686;2024-02-26T03:26:19;99572.81;;;7.33;100.00
44140;BME280;29803;51.048;4.686;2024-02-26T03:28:50;99580.16;;;7.31;100.00
44140;BME280;29803;51.048;4.686;2024-02-26T03:31:21;99586.50;;;7.30;100.00
44140;BME280;29803;51.048;4.686;2024-02-26T03:33:52;99580.84;;;7.33;100.00
44140;BME280;29803;51.048;4.686;2024-02-26T03:36:22;99585.88;;;7.28;100.00
44140;BME280;29803;51.048;4.686;2024-02-26T03:38:53;99565.75;;;7.40;100.00
44140;BME280;29803;51.048;4.686;2024-02-26T03:41:23;99569.44;;;7.39;100.00
44140;BME280;29803;51.048;4.686;2024-02-26T03:43:54;99572.16;;;7.31;100.00
44140;BME280;29803;51.048;4.686;2024-02-26T03:46:24;99555.66;;;7.27;100.00
44140;BME280;29803;51.048;4.686;2024-02-26T03:48:55;99566.00;;;7.31;100.00
44140;BME280;29803;51.048;4.686;2024-02-26T03:51:26;99573.50;;;7.27;100.00
44140;BME280;29803;51.048;4.686;2024-02-26T03:53:58;99576.53;;;7.24;100.00
44140;BME280;29803;51.048;4.686;2024-02-26T03:56:29;99574.00;;;7.31;100.00
44140;BME280;29803;51.048;4.686;2024-02-26T03:58:59;99568.78;;;7.37;100.00
44140;BME280;29803;51.048;4.686;2024-02-26T04:01:32;99574.19;;;7.29;100.00
44140;BME280;29803;51.048;4.686;2024-02-26T04:04:02;99574.03;;;7.22;100.00
44140;BME280;29803;51.048;4.686;2024-02-26T04:06:33;99582.69;;;7.24;100.00
44140;BME280;29803;51.048;4.686;2024-02-26T04:09:03;99576.84;;;7.29;100.00
44140;BME280;29803;51.048;4.686;2024-02-26T04:11:34;99586.81;;;7.35;100.00
44140;BME280;29803;51.048;4.686;2024-02-26T04:14:04;99589.66;;;7.34;100.00
44140;BME280;29803;51.048;4.686;2024-02-26T04:16:38;99593.19;;;7.26;100.00
44140;BME280;29803;51.048;4.686;2024-02-26T04:19:09;99597.19;;;7.30;100.00
44140;BME280;29803;51.048;4.686;2024-02-26T04:21:41;99605.19;;;7.30;100.00
44140;BME280;29803;51.048;4.686;2024-02-26T04:24:11;99603.00;;;7.34;100.00
44140;BME280;29803;51.048;4.686;2024-02-26T04:26:42;99599.13;;;7.36;100.00
44140;BME280;29803;51.048;4.686;2024-02-26T04:29:12;99601.50;;;7.31;100.00
44140;BME280;29803;51.048;4.686;2024-02-26T04:31:43;99603.81;;;7.34;100.00
44140;BME280;29803;51.048;4.686;2024-02-26T04:34:13;99611.53;;;7.29;100.00
44140;BME280;29803;51.048;4.686;2024-02-26T04:36:44;99605.19;;;7.30;100.00
44140;BME280;29803;51.048;4.686;2024-02-26T04:39:14;99606.53;;;7.26;100.00
44140;BME280;29803;51.048;4.686;2024-02-26T04:41:45;99615.66;;;7.32;100.00
44140;BME280;29803;51.048;4.686;2024-02-26T04:44:15;99617.81;;;7.36;100.00
44140;BME280;29803;51.048;4.686;2024-02-26T04:46:46;99618.59;;;7.45;100.00
44140;BME280;29803;51.048;4.686;2024-02-26T04:49:16;99615.97;;;7.37;100.00
44140;BME280;29803;51.048;4.686;2024-02-26T04:51:46;99620.44;;;7.44;100.00
44140;BME280;29803;51.048;4.686;2024-02-26T04:54:18;99626.13;;;7.41;100.00
44140;BME280;29803;51.048;4.686;2024-02-26T04:56:48;99626.78;;;7.43;100.00
44140;BME280;29803;51.048;4.686;2024-02-26T04:59:19;99626.78;;;7.43;100.00
44140;BME280;29803;51.048;4.686;2024-02-26T05:01:50;99628.97;;;7.40;100.00
44140;BME280;29803;51.048;4.686;2024-02-26T05:04:22;99635.44;;;7.45;100.00
44140;BME280;29803;51.048;4.686;2024-02-26T05:06:53;99638.63;;;7.41;100.00
44140;BME280;29803;51.048;4.686;2024-02-26T05:09:23;99652.31;;;7.38;100.00
44140;BME280;29803;51.048;4.686;2024-02-26T05:11:54;99649.50;;;7.39;100.00
44140;BME280;29803;51.048;4.686;2024-02-26T05:14:25;99662.66;;;7.41;100.00
44140;BME280;29803;51.048;4.686;2024-02-26T05:16:55;99656.47;;;7.40;100.00
44140;BME280;29803;51.048;4.686;2024-02-26T05:19:26;99655.56;;;7.25;100.00
44140;BME280;29803;51.048;4.686;2024-02-26T05:21:56;99653.50;;;7.35;100.00
44140;BME280;29803;51.048;4.686;2024-02-26T05:24:27;99662.53;;;7.34;100.00
44140;BME280;29803;51.048;4.686;2024-02-26T05:26:59;99664.19;;;7.35;100.00
44140;BME280;29803;51.048;4.686;2024-02-26T05:29:30;99662.38;;;7.27;100.00
44140;BME280;29803;51.048;4.686;2024-02-26T05:32:01;99670.84;;;7.39;100.00
44140;BME280;29803;51.048;4.686;2024-02-26T05:34:31;99673.19;;;7.34;100.00
44140;BME280;29803;51.048;4.686;2024-02-26T05:37:03;99667.50;;;7.37;100.00
44140;BME280;29803;51.048;4.686;2024-02-26T05:39:34;99671.34;;;7.35;100.00
44140;BME280;29803;51.048;4.686;2024-02-26T05:42:04;99677.69;;;7.34;100.00
44140;BME280;29803;51.048;4.686;2024-02-26T05:44:35;99674.50;;;7.38;100.00
44140;BME280;29803;51.048;4.686;2024-02-26T05:47:05;99667.56;;;7.21;100.00
44140;BME280;29803;51.048;4.686;2024-02-26T05:49:36;99676.88;;;7.33;100.00
44140;BME280;29803;51.048;4.686;2024-02-26T05:52:06;99681.59;;;7.23;100.00
44140;BME280;29803;51.048;4.686;2024-02-26T05:54:37;99681.91;;;7.28;100.00
44140;BME280;29803;51.048;4.686;2024-02-26T05:57:07;99685.53;;;7.27;100.00
44140;BME280;29803;51.048;4.686;2024-02-26T05:59:37;99693.34;;;7.37;100.00
44140;BME280;29803;51.048;4.686;2024-02-26T06:02:08;99689.28;;;7.18;100.00
44140;BME280;29803;51.048;4.686;2024-02-26T06:04:38;99698.88;;;7.27;100.00
44140;BME280;29803;51.048;4.686;2024-02-26T06:07:09;99697.75;;;7.21;100.00
44140;BME280;29803;51.048;4.686;2024-02-26T06:09:39;99705.94;;;7.20;100.00
44140;BME280;29803;51.048;4.686;2024-02-26T06:12:10;99714.75;;;7.20;100.00
44140;BME280;29803;51.048;4.686;2024-02-26T06:14:42;99715.59;;;7.21;100.00
44140;BME280;29803;51.048;4.686;2024-02-26T06:17:12;99717.09;;;7.15;100.00
44140;BME280;29803;51.048;4.686;2024-02-26T06:19:43;99719.13;;;7.13;100.00
44140;BME280;29803;51.048;4.686;2024-02-26T06:22:13;99718.44;;;7.11;100.00
44140;BME280;29803;51.048;4.686;2024-02-26T06:24:44;99737.28;;;7.18;100.00
44140;BME280;29803;51.048;4.686;2024-02-26T06:27:14;99734.25;;;7.21;100.00
44140;BME280;29803;51.048;4.686;2024-02-26T06:29:45;99743.47;;;7.10;100.00
44140;BME280;29803;51.048;4.686;2024-02-26T06:32:15;99737.44;;;7.16;100.00
44140;BME280;29803;51.048;4.686;2024-02-26T06:34:46;99749.75;;;7.17;100.00
44140;BME280;29803;51.048;4.686;2024-02-26T06:37:16;99758.25;;;7.21;100.00
44140;BME280;29803;51.048;4.686;2024-02-26T06:39:47;99760.78;;;7.14;100.00
44140;BME280;29803;51.048;4.686;2024-02-26T06:42:17;99755.59;;;7.13;100.00
44140;BME280;29803;51.048;4.686;2024-02-26T06:44:48;99770.13;;;7.18;100.00
44140;BME280;29803;51.048;4.686;2024-02-26T06:47:18;99768.44;;;7.17;100.00
44140;BME280;29803;51.048;4.686;2024-02-26T06:49:49;99767.28;;;7.20;100.00
44140;BME280;29803;51.048;4.686;2024-02-26T06:52:20;99777.94;;;7.20;100.00
44140;BME280;29803;51.048;4.686;2024-02-26T06:54:50;99775.47;;;7.10;100.00
44140;BME280;29803;51.048;4.686;2024-02-26T06:57:22;99773.63;;;7.11;100.00
44140;BME280;29803;51.048;4.686;2024-02-26T06:59:54;99783.28;;;7.12;100.00
44140;BME280;29803;51.048;4.686;2024-02-26T07:02:24;99799.63;;;7.17;100.00
44140;BME280;29803;51.048;4.686;2024-02-26T07:04:55;99796.97;;;7.09;100.00
44140;BME280;29803;51.048;4.686;2024-02-26T07:07:26;99794.97;;;7.19;100.00
44140;BME280;29803;51.048;4.686;2024-02-26T07:09:56;99805.97;;;7.16;100.00
44140;BME280;29803;51.048;4.686;2024-02-26T07:12:27;99810.00;;;7.04;100.00
44140;BME280;29803;51.048;4.686;2024-02-26T07:14:58;99812.47;;;7.13;100.00
44140;BME280;29803;51.048;4.686;2024-02-26T07:17:28;99826.97;;;7.19;100.00
44140;BME280;29803;51.048;4.686;2024-02-26T07:20:00;99827.44;;;7.22;100.00
44140;BME280;29803;51.048;4.686;2024-02-26T07:22:30;99833.47;;;7.24;100.00
44140;BME280;29803;51.048;4.686;2024-02-26T07:25:01;99830.97;;;7.23;100.00
44140;BME280;29803;51.048;4.686;2024-02-26T07:27:31;99837.97;;;7.08;100.00
44140;BME280;29803;51.048;4.686;2024-02-26T07:30:02;99844.81;;;7.18;100.00
44140;BME280;29803;51.048;4.686;2024-02-26T07:32:32;99856.00;;;7.14;100.00
44140;BME280;29803;51.048;4.686;2024-02-26T07:35:03;99860.16;;;7.08;100.00
44140;BME280;29803;51.048;4.686;2024-02-26T07:37:34;99864.63;;;7.08;100.00
44140;BME280;29803;51.048;4.686;2024-02-26T07:40:05;99866.81;;;7.12;100.00
44140;BME280;29803;51.048;4.686;2024-02-26T07:42:36;99871.31;;;7.12;100.00
44140;BME280;29803;51.048;4.686;2024-02-26T07:45:07;99870.13;;;7.22;100.00
44140;BME280;29803;51.048;4.686;2024-02-26T07:47:37;99877.31;;;7.14;100.00
44140;BME280;29803;51.048;4.686;2024-02-26T07:50:11;99870.13;;;7.22;100.00
44140;BME280;29803;51.048;4.686;2024-02-26T07:52:42;99876.81;;;7.26;100.00
44140;BME280;29803;51.048;4.686;2024-02-26T07:55:12;99887.66;;;7.25;100.00
44140;BME280;29803;51.048;4.686;2024-02-26T07:57:43;99884.81;;;7.18;100.00
44140;BME280;29803;51.048;4.686;2024-02-26T08:00:14;99878.31;;;7.21;100.00
44140;BME280;29803;51.048;4.686;2024-02-26T08:02:47;99887.16;;;7.13;100.00
44140;BME280;29803;51.048;4.686;2024-02-26T08:05:17;99891.31;;;7.24;100.00
44140;BME280;29803;51.048;4.686;2024-02-26T08:07:48;99893.31;;;7.22;100.00
44140;BME280;29803;51.048;4.686;2024-02-26T08:10:18;99907.97;;;7.26;100.00
44140;BME280;29803;51.048;4.686;2024-02-26T08:12:49;99902.31;;;7.21;100.00
44140;BME280;29803;51.048;4.686;2024-02-26T08:15:19;99907.16;;;7.25;100.00
44140;BME280;29803;51.048;4.686;2024-02-26T08:17:50;99902.31;;;7.21;100.00
44140;BME280;29803;51.048;4.686;2024-02-26T08:20:20;99916.34;;;7.23;100.00
44140;BME280;29803;51.048;4.686;2024-02-26T08:22:51;99921.50;;;7.24;100.00
44140;BME280;29803;51.048;4.686;2024-02-26T08:25:22;99922.66;;;7.30;100.00
44140;BME280;29803;51.048;4.686;2024-02-26T08:27:52;99927.34;;;7.28;100.00
44140;BME280;29803;51.048;4.686;2024-02-26T08:30:23;99934.00;;;7.24;100.00
44140;BME280;29803;51.048;4.686;2024-02-26T08:32:53;99941.34;;;7.30;100.00
44140;BME280;29803;51.048;4.686;2024-02-26T08:35:24;99938.16;;;7.26;100.00
44140;BME280;29803;51.048;4.686;2024-02-26T08:37:54;99943.00;;;7.23;100.00
44140;BME280;29803;51.048;4.686;2024-02-26T08:40:25;99948.50;;;7.13;100.00
44140;BME280;29803;51.048;4.686;2024-02-26T08:42:55;99949.16;;;7.15;100.00
44140;BME280;29803;51.048;4.686;2024-02-26T08:45:26;99949.00;;;7.09;100.00
44140;BME280;29803;51.048;4.686;2024-02-26T08:47:58;99963.50;;;7.14;100.00
44140;BME280;29803;51.048;4.686;2024-02-26T08:50:29;99961.34;;;7.18;100.00
44140;BME280;29803;51.048;4.686;2024-02-26T08:53:00;99967.34;;;7.20;100.00
44140;BME280;29803;51.048;4.686;2024-02-26T08:55:31;99964.50;;;7.21;100.00
44140;BME280;29803;51.048;4.686;2024-02-26T08:58:01;99973.03;;;7.25;100.00
44140;BME280;29803;51.048;4.686;2024-02-26T09:00:32;99974.34;;;7.21;100.00
44140;BME280;29803;51.048;4.686;2024-02-26T09:03:03;99981.84;;;7.17;100.00
44140;BME280;29803;51.048;4.686;2024-02-26T09:05:33;99985.50;;;7.16;100.00
44140;BME280;29803;51.048;4.686;2024-02-26T09:08:04;99991.34;;;7.12;100.00
44140;BME280;29803;51.048;4.686;2024-02-26T09:10:35;99997.34;;;7.14;100.00
44140;BME280;29803;51.048;4.686;2024-02-26T09:13:06;100001.84;;;7.21;100.00
44140;BME280;29803;51.048;4.686;2024-02-26T09:15:36;100010.03;;;7.20;100.00
44140;BME280;29803;51.048;4.686;2024-02-26T09:18:07;100003.50;;;7.22;100.00
44140;BME280;29803;51.048;4.686;2024-02-26T09:20:37;100007.88;;;7.23;100.00
44140;BME280;29803;51.048;4.686;2024-02-26T09:23:09;100014.53;;;7.27;100.00
44140;BME280;29803;51.048;4.686;2024-02-26T09:25:39;100016.69;;;7.32;100.00
44140;BME280;29803;51.048;4.686;2024-02-26T09:28:10;100017.72;;;7.23;100.00
44140;BME280;29803;51.048;4.686;2024-02-26T09:30:40;100023.72;;;7.25;100.00
44140;BME280;29803;51.048;4.686;2024-02-26T09:33:11;100022.38;;;7.29;100.00
44140;BME280;29803;51.048;4.686;2024-02-26T09:35:43;100025.22;;;7.36;100.00
44140;BME280;29803;51.048;4.686;2024-02-26T09:38:14;100020.72;;;7.28;100.00
44140;BME280;29803;51.048;4.686;2024-02-26T09:40:44;100026.19;;;7.26;100.00
44140;BME280;29803;51.048;4.686;2024-02-26T09:43:17;100041.06;;;7.29;100.00
44140;BME280;29803;51.048;4.686;2024-02-26T09:45:53;100049.41;;;7.34;100.00
44140;BME280;29803;51.048;4.686;2024-02-26T09:48:23;100045.06;;;7.25;100.00
44140;BME280;29803;51.048;4.686;2024-02-26T09:50:54;100056.72;;;7.32;100.00
44140;BME280;29803;51.048;4.686;2024-02-26T09:53:24;100053.22;;;7.32;100.00
44140;BME280;29803;51.048;4.686;2024-02-26T09:55:55;100059.41;;;7.24;100.00
44140;BME280;29803;51.048;4.686;2024-02-26T09:58:28;100065.75;;;7.23;100.00
44140;BME280;29803;51.048;4.686;2024-02-26T10:01:00;100069.72;;;7.27;100.00
44140;BME280;29803;51.048;4.686;2024-02-26T10:03:38;100071.06;;;7.23;100.00
44140;BME280;29803;51.048;4.686;2024-02-26T10:06:10;100069.03;;;7.17;100.00
44140;BME280;29803;51.048;4.686;2024-02-26T10:08:41;100075.72;;;7.21;100.00
44140;BME280;29803;51.048;4.686;2024-02-26T10:11:14;100078.06;;;7.32;100.00
44140;BME280;29803;51.048;4.686;2024-02-26T10:13:45;100086.91;;;7.24;100.00
44140;BME280;29803;51.048;4.686;2024-02-26T10:16:16;100098.09;;;7.36;100.00
44140;BME280;29803;51.048;4.686;2024-02-26T10:18:49;100096.09;;;7.30;100.00
44140;BME280;29803;51.048;4.686;2024-02-26T10:21:20;100093.56;;;7.20;100.00
44140;BME280;29803;51.048;4.686;2024-02-26T10:23:51;100101.25;;;7.32;100.00
44140;BME280;29803;51.048;4.686;2024-02-26T10:26:22;100107.63;;;7.39;100.00
44140;BME280;29803;51.048;4.686;2024-02-26T10:28:52;100116.25;;;7.24;100.00
44140;BME280;29803;51.048;4.686;2024-02-26T10:31:23;100120.06;;;7.14;100.00
44140;BME280;29803;51.048;4.686;2024-02-26T10:33:55;100129.56;;;7.16;100.00
44140;BME280;29803;51.048;4.686;2024-02-26T10:36:26;100111.38;;;7.12;100.00
44140;BME280;29803;51.048;4.686;2024-02-26T10:38:57;100122.63;;;6.89;100.00
44140;BME280;29803;51.048;4.686;2024-02-26T10:41:27;100135.97;;;6.97;100.00
44140;BME280;29803;51.048;4.686;2024-02-26T10:43:58;100150.00;;;6.99;100.00
44140;BME280;29803;51.048;4.686;2024-02-26T10:46:28;100148.47;;;6.97;100.00
44140;BME280;29803;51.048;4.686;2024-02-26T10:48:59;100144.66;;;6.99;100.00
44140;BME280;29803;51.048;4.686;2024-02-26T10:51:30;100157.53;;;7.04;100.00
44140;BME280;29803;51.048;4.686;2024-02-26T10:54:04;100161.19;;;7.03;100.00
44140;BME280;29803;51.048;4.686;2024-02-26T10:56:39;100168.91;;;7.14;100.00
44140;BME280;29803;51.048;4.686;2024-02-26T10:59:11;100169.38;;;7.10;100.00
44140;BME280;29803;51.048;4.686;2024-02-26T11:01:42;100170.25;;;7.18;100.00
44140;BME280;29803;51.048;4.686;2024-02-26T11:04:17;100179.22;;;7.17;100.00
44140;BME280;29803;51.048;4.686;2024-02-26T11:06:49;100176.75;;;7.16;100.00
44140;BME280;29803;51.048;4.686;2024-02-26T11:09:20;100182.91;;;7.16;100.00
44140;BME280;29803;51.048;4.686;2024-02-26T11:11:51;100180.41;;;7.15;100.00
44140;BME280;29803;51.048;4.686;2024-02-26T11:14:26;100192.22;;;7.12;100.00
44140;BME280;29803;51.048;4.686;2024-02-26T11:16:57;100196.59;;;7.13;100.00
44140;BME280;29803;51.048;4.686;2024-02-26T11:19:30;100196.72;;;7.12;100.00
44140;BME280;29803;51.048;4.686;2024-02-26T11:22:00;100201.78;;;7.23;100.00
44140;BME280;29803;51.048;4.686;2024-02-26T11:24:31;100200.78;;;7.24;100.00
44140;BME280;29803;51.048;4.686;2024-02-26T11:27:04;100193.28;;;7.19;100.00
44140;BME280;29803;51.048;4.686;2024-02-26T11:29:50;100204.47;;;7.23;100.00
44140;BME280;29803;51.048;4.686;2024-02-26T11:32:22;100213.44;;;7.22;100.00
44140;BME280;29803;51.048;4.686;2024-02-26T11:34:53;100220.94;;;7.18;100.00
44140;BME280;29803;51.048;4.686;2024-02-26T11:37:24;100211.41;;;7.16;100.00
44140;BME280;29803;51.048;4.686;2024-02-26T11:39:59;100223.25;;;7.13;100.00
44140;BME280;29803;51.048;4.686;2024-02-26T11:42:30;100223.75;;;7.17;100.00
44140;BME280;29803;51.048;4.686;2024-02-26T11:45:00;100227.13;;;7.19;100.00
44140;BME280;29803;51.048;4.686;2024-02-26T11:47:34;100227.38;;;7.08;100.00
44140;BME280;29803;51.048;4.686;2024-02-26T11:50:35;100229.44;;;7.22;100.00
44140;BME280;29803;51.048;4.686;2024-02-26T11:53:23;100221.78;;;7.19;100.00
44140;BME280;29803;51.048;4.686;2024-02-26T11:58:57;100228.25;;;7.16;100.00
44140;BME280;29803;51.048;4.686;2024-02-26T12:06:50;100242.78;;;7.22;100.00
44140;BME280;29803;51.048;4.686;2024-02-26T12:12:05;100252.50;;;7.23;100.00
44140;BME280;29803;51.048;4.686;2024-02-26T12:14:39;100262.81;;;7.18;100.00
44140;BME280;29803;51.048;4.686;2024-02-26T12:17:25;100259.78;;;7.21;100.00
44140;BME280;29803;51.048;4.686;2024-02-26T12:19:56;100272.97;;;7.22;100.00
44140;BME280;29803;51.048;4.686;2024-02-26T12:22:39;100276.13;;;7.18;100.00
44140;BME280;29803;51.048;4.686;2024-02-26T12:25:10;100263.88;;;7.07;100.00
44140;BME280;29803;51.048;4.686;2024-02-26T12:27:41;100270.91;;;7.08;100.00
44140;BME280;29803;51.048;4.686;2024-02-26T12:30:12;100287.59;;;7.10;100.00
44140;BME280;29803;51.048;4.686;2024-02-26T12:32:42;100287.50;;;7.02;100.00
44140;BME280;29803;51.048;4.686;2024-02-26T12:35:13;100291.81;;;6.95;100.00
44140;BME280;29803;51.048;4.686;2024-02-26T12:37:44;100295.00;;;6.98;100.00
44140;BME280;29803;51.048;4.686;2024-02-26T12:40:15;100300.94;;;6.92;100.00
44140;BME280;29803;51.048;4.686;2024-02-26T12:42:45;100300.28;;;6.90;100.00
44140;BME280;29803;51.048;4.686;2024-02-26T12:45:16;100305.81;;;6.97;100.00
44140;BME280;29803;51.048;4.686;2024-02-26T12:47:47;100314.06;;;6.86;100.00
44140;BME280;29803;51.048;4.686;2024-02-26T12:50:18;100325.03;;;7.00;100.00
44140;BME280;29803;51.048;4.686;2024-02-26T12:52:49;100329.31;;;6.93;100.00
44140;BME280;29803;51.048;4.686;2024-02-26T12:55:21;100326.66;;;6.93;100.00
44140;BME280;29803;51.048;4.686;2024-02-26T12:57:52;100327.78;;;6.91;100.00
44140;BME280;29803;51.048;4.686;2024-02-26T13:00:25;100330.81;;;6.96;100.00
44140;BME280;29803;51.048;4.686;2024-02-26T13:02:56;100332.03;;;7.01;100.00
44140;BME280;29803;51.048;4.686;2024-02-26T13:05:29;100339.09;;;7.11;100.00
44140;BME280;29803;51.048;4.686;2024-02-26T13:08:01;100342.06;;;7.08;100.00
44140;BME280;29803;51.048;4.686;2024-02-26T13:10:32;100346.81;;;6.96;100.00
44140;BME280;29803;51.048;4.686;2024-02-26T13:13:05;100360.38;;;7.03;100.00
44140;BME280;29803;51.048;4.686;2024-02-26T13:15:35;100354.19;;;7.02;100.00
44140;BME280;29803;51.048;4.686;2024-02-26T13:18:11;100359.69;;;7.00;100.00
44140;BME280;29803;51.048;4.686;2024-02-26T13:20:42;100366.31;;;6.96;100.00
44140;BME280;29803;51.048;4.686;2024-02-26T13:23:12;100370.66;;;6.97;100.00
44140;BME280;29803;51.048;4.686;2024-02-26T13:25:43;100377.38;;;7.01;100.00
44140;BME280;29803;51.048;4.686;2024-02-26T13:28:15;100374.22;;;7.06;100.00
44140;BME280;29803;51.048;4.686;2024-02-26T13:30:51;100379.56;;;7.06;100.00